Time;durP1;ratioP1;P1;durP2;ratioP2;P2;SDS_P1;SDS_P2;PMS_P1;PMS_P2;Temp;Humidity;BMP_temperature;BMP_pressure;BME280_temperature;BME280_humidity;BME280_pressure;Samples;Min_cycle;Max_cycle;Signal;HPM_P1;HPM_P2
2023/07/02 09:15:51;;;;;;;35.58;9.90;;;;;;;;;;2529632;23;20018;-84
2023/07/02 11:26:16;;;;;;;17.40;8.10;;;;;;;;;;2508648;23;20026;-74
2023/07/02 11:27:37;;;;;;;18.63;6.70;;;;;;;;;;2510867;23;20011;-75
2023/07/02 11:29:01;;;;;;;18.58;6.70;;;;;;;;;;2513828;23;20007;-77
2023/07/02 11:30:22;;;;;;;18.58;6.95;;;;;;;;;;2510157;23;20007;-76
2023/07/02 11:31:48;;;;;;;20.38;6.35;;;;;;;;;;2520552;23;20011;-74
2023/07/02 11:33:09;;;;;;;18.38;6.93;;;;;;;;;;2500830;23;20342;-74
2023/07/02 11:34:30;;;;;;;19.10;6.78;;;;;;;;;;2502447;23;20070;-73
2023/07/02 11:44:43;;;;;;;22.02;7.80;;;;;;;;;;2468801;23;20023;-75
2023/07/02 11:46:31;;;;;;;32.92;9.98;;;;;;;;;;2485336;23;20011;-76
2023/07/02 11:49:42;;;;;;;27.05;8.80;;;;;;;;;;2484316;23;20064;-75
2023/07/02 11:51:19;;;;;;;28.08;10.88;;;;;;;;;;2468844;24;20023;-75
2023/07/02 11:52:40;;;;;;;29.45;9.80;;;;;;;;;;2493468;23;20015;-75
2023/07/02 11:54:00;;;;;;;28.25;9.13;;;;;;;;;;2514238;23;20017;-77
2023/07/02 11:55:21;;;;;;;21.40;7.30;;;;;;;;;;2513457;23;20018;-77
2023/07/02 11:56:42;;;;;;;17.73;7.47;;;;;;;;;;2522194;23;20006;-77
2023/07/02 11:58:03;;;;;;;19.10;7.55;;;;;;;;;;2513731;23;20057;-77
2023/07/02 11:59:24;;;;;;;19.17;6.93;;;;;;;;;;2508751;23;20034;-78
2023/07/02 12:00:45;;;;;;;19.88;7.18;;;;;;;;;;2510599;23;20014;-78
2023/07/02 12:02:06;;;;;;;18.17;7.38;;;;;;;;;;2510555;23;20011;-78
2023/07/02 12:03:30;;;;;;;15.55;5.88;;;;;;;;;;2506584;23;20338;-79
2023/07/02 12:04:51;;;;;;;18.63;7.13;;;;;;;;;;2497952;23;20019;-78
2023/07/02 12:06:12;;;;;;;20.48;6.47;;;;;;;;;;2507245;23;20405;-77
2023/07/02 12:07:37;;;;;;;18.10;6.93;;;;;;;;;;2510448;23;20011;-79
2023/07/02 12:08:58;;;;;;;19.10;7.72;;;;;;;;;;2507348;23;20022;-77
2023/07/02 12:10:19;;;;;;;19.77;7.40;;;;;;;;;;2509394;23;20022;-77
2023/07/02 12:11:40;;;;;;;22.33;7.57;;;;;;;;;;2508327;23;20727;-76
2023/07/02 12:13:01;;;;;;;15.57;6.63;;;;;;;;;;2507933;23;20017;-77
2023/07/02 12:28:26;;;;;;;37.25;11.10;;;;;;;;;;2517912;23;20022;-76
2023/07/02 12:33:30;;;;;;;26.40;7.60;;;;;;;;;;2504413;23;20571;-78
2023/07/02 12:39:10;;;;;;;38.70;11.88;;;;;;;;;;2482445;23;20064;-78
2023/07/02 12:40:31;;;;;;;17.50;7.15;;;;;;;;;;2479986;23;20055;-75
2023/07/02 12:41:54;;;;;;;14.80;5.93;;;;;;;;;;2470861;24;20435;-75
2023/07/02 12:43:15;;;;;;;21.42;7.63;;;;;;;;;;2502337;23;20046;-75
2023/07/02 12:44:36;;;;;;;25.25;8.93;;;;;;;;;;2498431;23;20023;-76
2023/07/02 12:45:57;;;;;;;20.53;7.07;;;;;;;;;;2502378;23;20239;-75
2023/07/02 13:01:31;;;;;;;19.00;6.80;;;;;;;;;;2506822;23;20006;-80
2023/07/02 13:03:07;;;;;;;18.67;7.00;;;;;;;;;;2518961;23;20011;-77
2023/07/02 13:04:31;;;;;;;49.25;16.17;;;;;;;;;;2480622;23;20026;-77
2023/07/02 13:05:52;;;;;;;24.83;7.80;;;;;;;;;;2502964;23;20007;-77
2023/07/02 13:07:26;;;;;;;19.63;6.55;;;;;;;;;;2518873;23;20022;-80
2023/07/02 13:08:47;;;;;;;18.30;6.38;;;;;;;;;;2494090;23;20011;-76
2023/07/02 13:10:20;;;;;;;20.45;7.68;;;;;;;;;;2502371;23;20015;-76
2023/07/02 13:18:49;;;;;;;14.13;6.32;;;;;;;;;;2556452;23;20048;-80
2023/07/02 13:20:16;;;;;;;28.17;7.70;;;;;;;;;;2552900;23;20009;-80
2023/07/02 13:22:05;;;;;;;21.75;7.30;;;;;;;;;;2524491;23;20010;-80
2023/07/02 13:23:35;;;;;;;20.38;6.93;;;;;;;;;;2518912;23;20587;-79
2023/07/02 13:25:21;;;;;;;12.65;5.18;;;;;;;;;;2523928;23;20027;-77
2023/07/02 14:37:22;;;;;;;24.30;7.43;;;;;;;;;;2514824;23;20074;-74
2023/07/02 14:44:47;;;;;;;17.33;6.72;;;;;;;;;;2458955;24;20017;-75
2023/07/02 14:50:30;;;;;;;;;;;;;;;;;;;;;
2023/07/02 14:52:20;;;;;;;;;;;;;;;;;;;;;
2023/07/02 14:55:45;;;;;;;41.35;12.20;;;;;;;;;;2453325;23;20012;-76
2023/07/02 14:57:58;;;;;;;17.80;6.60;;;;;;;;;;2447767;24;20024;-75
2023/07/02 15:01:56;;;;;;;26.88;9.70;;;;;;;;;;2461300;24;20012;-74
2023/07/02 15:03:17;;;;;;;20.27;7.40;;;;;;;;;;2505640;23;20369;-75
2023/07/02 15:04:48;;;;;;;26.08;7.50;;;;;;;;;;2527832;23;20006;-75
2023/07/02 15:06:11;;;;;;;32.08;9.73;;;;;;;;;;2530914;23;20521;-75
2023/07/02 15:08:28;;;;;;;16.77;6.75;;;;;;;;;;2530359;23;20006;-74
2023/07/02 15:20:10;;;;;;;31.73;10.40;;;;;;;;;;2539647;23;20005;-79
2023/07/02 15:44:58;;;;;;;21.25;7.30;;;;;;;;;;2501952;23;20014;-75
2023/07/02 15:46:57;;;;;;;19.58;6.95;;;;;;;;;;2494145;23;20370;-76
2023/07/02 15:50:20;;;;;;;19.90;7.28;;;;;;;;;;2459969;23;20458;-75
2023/07/02 15:54:00;;;;;;;18.42;6.43;;;;;;;;;;2459639;24;20000;-74
2023/07/02 16:00:36;;;;;;;16.42;6.63;;;;;;;;;;2436229;24;20181;-78
2023/07/02 19:35:31;;;;;;;37.10;12.57;;;;;;;;;;2526584;23;20045;-90
2023/07/02 19:37:01;;;;;;;35.78;10.48;;;;;;;;;;2518629;23;20028;-90
2023/07/02 19:38:29;;;;;;;30.70;10.15;;;;;;;;;;2503820;23;20010;-91
2023/07/02 19:39:52;;;;;;;30.00;9.68;;;;;;;;;;2486978;23;20026;-92
2023/07/02 19:41:13;;;;;;;29.38;10.68;;;;;;;;;;2500439;23;20435;-90
2023/07/02 19:42:42;;;;;;;31.50;10.20;;;;;;;;;;2502813;23;20043;-92
2023/07/02 19:44:03;;;;;;;26.75;9.02;;;;;;;;;;2504111;23;20056;-93
2023/07/02 19:45:24;;;;;;;25.43;8.90;;;;;;;;;;2504196;23;20014;-90
2023/07/02 19:46:47;;;;;;;25.17;9.15;;;;;;;;;;2502902;23;20394;-90
2023/07/02 19:48:17;;;;;;;30.42;10.32;;;;;;;;;;2513847;23;20041;-90
2023/07/02 19:49:44;;;;;;;42.92;14.68;;;;;;;;;;2510577;23;20120;-90
2023/07/02 19:51:14;;;;;;;25.55;8.43;;;;;;;;;;2506350;23;20251;-90
2023/07/02 19:52:35;;;;;;;37.42;12.43;;;;;;;;;;2502338;23;20026;-90
2023/07/02 19:53:56;;;;;;;21.48;8.35;;;;;;;;;;2502912;23;20029;-91
2023/07/02 19:55:26;;;;;;;27.25;8.82;;;;;;;;;;2503865;23;20014;-90
2023/07/02 19:56:53;;;;;;;26.17;8.77;;;;;;;;;;2515886;23;20010;-91
2023/07/02 19:58:17;;;;;;;29.00;10.02;;;;;;;;;;2508758;23;20011;-91
2023/07/02 19:59:45;;;;;;;35.65;12.63;;;;;;;;;;2501859;23;20011;-90
2023/07/02 20:01:10;;;;;;;20.92;8.68;;;;;;;;;;2516290;23;20010;-90
2023/07/02 20:02:31;;;;;;;36.42;11.02;;;;;;;;;;2506980;23;20018;-91
2023/07/02 20:03:52;;;;;;;41.90;12.57;;;;;;;;;;2500909;23;20021;-89
2023/07/02 20:05:25;;;;;;;26.30;9.50;;;;;;;;;;2514935;23;20424;-89
2023/07/02 20:06:47;;;;;;;21.65;8.48;;;;;;;;;;2507332;23;20015;-89
2023/07/02 20:08:31;;;;;;;28.90;10.77;;;;;;;;;;2503867;23;20019;-89
2023/07/02 20:09:52;;;;;;;47.47;15.40;;;;;;;;;;2504392;23;20014;-89
2023/07/02 20:11:13;;;;;;;21.77;8.95;;;;;;;;;;2503052;23;20022;-90
2023/07/02 20:12:34;;;;;;;32.40;9.63;;;;;;;;;;2503383;23;20471;-90
2023/07/02 20:14:00;;;;;;;21.13;8.75;;;;;;;;;;2504544;23;20018;-89
2023/07/02 20:15:22;;;;;;;19.40;8.13;;;;;;;;;;2515234;23;20018;-89
2023/07/02 20:16:50;;;;;;;20.15;8.65;;;;;;;;;;2509919;23;20030;-90
2023/07/02 20:18:18;;;;;;;22.48;8.63;;;;;;;;;;2505998;23;20022;-90
2023/07/02 20:19:49;;;;;;;38.05;15.05;;;;;;;;;;2504353;23;20015;-90
2023/07/02 20:21:28;;;;;;;24.85;7.80;;;;;;;;;;2507189;23;20007;-90
2023/07/02 20:22:49;;;;;;;24.40;9.00;;;;;;;;;;2509316;23;20445;-90
2023/07/02 20:24:10;;;;;;;21.58;7.40;;;;;;;;;;2504996;23;20011;-91
2023/07/02 20:25:38;;;;;;;24.15;9.27;;;;;;;;;;2505861;23;20011;-92
2023/07/02 20:27:00;;;;;;;36.50;11.10;;;;;;;;;;2504984;23;20122;-91
2023/07/02 20:28:21;;;;;;;23.90;8.65;;;;;;;;;;2504349;23;20011;-90
2023/07/02 20:29:44;;;;;;;28.90;11.15;;;;;;;;;;2507261;23;20018;-92
2023/07/02 20:31:05;;;;;;;20.50;8.35;;;;;;;;;;2504389;23;20011;-91
2023/07/02 20:32:26;;;;;;;21.75;8.95;;;;;;;;;;2505833;23;20054;-90
2023/07/02 20:33:47;;;;;;;24.90;9.07;;;;;;;;;;2505079;23;20014;-91
2023/07/02 20:35:09;;;;;;;24.77;8.75;;;;;;;;;;2505088;23;20030;-91
2023/07/02 20:36:32;;;;;;;21.45;8.15;;;;;;;;;;2517933;23;20022;-91
2023/07/02 20:37:55;;;;;;;35.42;11.63;;;;;;;;;;2505647;23;20026;-90
2023/07/02 20:39:16;;;;;;;23.17;7.47;;;;;;;;;;2506324;23;20015;-90
2023/07/02 20:40:37;;;;;;;24.15;8.85;;;;;;;;;;2491697;23;20019;-91
2023/07/02 20:41:58;;;;;;;21.50;7.40;;;;;;;;;;2504038;23;20007;-90
2023/07/02 20:43:24;;;;;;;16.10;6.78;;;;;;;;;;2508259;23;20140;-91
2023/07/02 20:44:49;;;;;;;18.75;8.68;;;;;;;;;;2517582;23;20054;-91
2023/07/02 20:46:10;;;;;;;17.73;7.28;;;;;;;;;;2511855;23;20110;-91
2023/07/02 20:47:35;;;;;;;22.60;9.30;;;;;;;;;;2507271;23;20274;-91
2023/07/02 20:48:57;;;;;;;25.45;8.40;;;;;;;;;;2517864;23;20041;-90
2023/07/02 20:50:18;;;;;;;23.83;7.88;;;;;;;;;;2509747;23;20029;-91
2023/07/02 20:51:39;;;;;;;24.05;8.68;;;;;;;;;;2506030;23;20018;-91
2023/07/02 20:53:04;;;;;;;19.35;7.93;;;;;;;;;;2519366;23;20093;-91
2023/07/02 20:54:25;;;;;;;20.77;8.40;;;;;;;;;;2511065;23;20011;-91
2023/07/02 20:55:52;;;;;;;23.92;8.05;;;;;;;;;;2507871;23;20006;-91
2023/07/02 20:57:16;;;;;;;26.25;9.57;;;;;;;;;;2518620;23;20007;-91
2023/07/02 20:58:57;;;;;;;21.42;7.88;;;;;;;;;;2510971;23;20022;-91
2023/07/02 21:00:18;;;;;;;22.23;7.97;;;;;;;;;;2509693;23;20352;-91
2023/07/02 21:01:40;;;;;;;23.48;7.97;;;;;;;;;;2507710;23;20018;-90
2023/07/02 21:03:01;;;;;;;21.17;8.52;;;;;;;;;;2505992;23;20051;-91
2023/07/02 21:04:22;;;;;;;21.05;7.18;;;;;;;;;;2505587;23;20097;-91
2023/07/02 21:05:46;;;;;;;22.33;8.23;;;;;;;;;;2507860;23;20011;-91
2023/07/02 21:07:07;;;;;;;26.40;9.20;;;;;;;;;;2507752;23;20435;-90
2023/07/02 21:08:28;;;;;;;24.00;8.15;;;;;;;;;;2508501;23;20034;-89
2023/07/02 21:09:49;;;;;;;41.22;14.32;;;;;;;;;;2505945;23;20018;-90
2023/07/02 21:11:13;;;;;;;27.07;9.30;;;;;;;;;;2505852;23;20026;-90
2023/07/02 21:12:35;;;;;;;19.85;7.53;;;;;;;;;;2506798;23;20398;-90
2023/07/02 21:13:58;;;;;;;17.63;6.60;;;;;;;;;;2506844;23;20013;-90
2023/07/02 21:15:19;;;;;;;21.20;9.15;;;;;;;;;;2507992;23;20026;-90
2023/07/02 21:16:40;;;;;;;22.65;8.73;;;;;;;;;;2506899;23;20021;-90
2023/07/02 21:18:04;;;;;;;18.45;7.93;;;;;;;;;;2507099;23;20027;-90
2023/07/02 21:19:28;;;;;;;20.88;8.15;;;;;;;;;;2508652;23;20036;-91
2023/07/02 21:20:49;;;;;;;17.27;8.13;;;;;;;;;;2507881;23;20496;-91
2023/07/02 21:22:10;;;;;;;22.73;8.65;;;;;;;;;;2508304;23;20055;-90
2023/07/02 21:23:31;;;;;;;20.05;7.95;;;;;;;;;;2508315;23;20106;-90
2023/07/02 21:24:52;;;;;;;20.48;8.63;;;;;;;;;;2507744;23;20006;-90
2023/07/02 21:26:19;;;;;;;18.92;7.95;;;;;;;;;;2506936;23;20017;-91
2023/07/02 21:27:40;;;;;;;22.25;8.88;;;;;;;;;;2508959;23;20022;-91
2023/07/02 21:29:01;;;;;;;20.27;7.55;;;;;;;;;;2505691;23;20018;-91
2023/07/02 21:30:31;;;;;;;21.02;8.68;;;;;;;;;;2491221;23;20022;-91
2023/07/02 21:31:52;;;;;;;22.60;8.10;;;;;;;;;;2508278;23;20014;-90
2023/07/02 21:33:13;;;;;;;16.85;8.13;;;;;;;;;;2503055;23;20010;-91
2023/07/02 21:34:35;;;;;;;16.48;6.32;;;;;;;;;;2508013;23;20027;-90
2023/07/02 21:36:10;;;;;;;17.80;6.80;;;;;;;;;;2507266;23;20022;-91
2023/07/02 21:37:31;;;;;;;18.58;8.80;;;;;;;;;;2511395;23;20015;-91
2023/07/02 21:38:52;;;;;;;20.27;6.80;;;;;;;;;;2507621;23;20022;-91
2023/07/02 21:40:19;;;;;;;29.65;8.30;;;;;;;;;;2506317;23;20011;-91
2023/07/02 21:41:43;;;;;;;18.85;7.70;;;;;;;;;;2507965;23;20011;-90
2023/07/02 21:43:04;;;;;;;21.60;7.90;;;;;;;;;;2508683;23;20014;-91
2023/07/02 21:44:27;;;;;;;25.73;9.07;;;;;;;;;;2507169;23;20073;-88
2023/07/02 21:45:52;;;;;;;17.55;8.05;;;;;;;;;;2510030;23;20011;-89
2023/07/02 21:47:15;;;;;;;17.98;7.40;;;;;;;;;;2507079;23;20368;-90
2023/07/02 21:48:36;;;;;;;19.00;8.07;;;;;;;;;;2508077;23;20011;-90
2023/07/02 21:50:00;;;;;;;29.63;10.90;;;;;;;;;;2506999;23;20015;-91
2023/07/02 21:51:23;;;;;;;21.73;8.15;;;;;;;;;;2507555;23;20345;-92
2023/07/02 21:52:44;;;;;;;20.60;7.30;;;;;;;;;;2507771;23;20096;-90
2023/07/02 21:54:05;;;;;;;20.23;8.18;;;;;;;;;;2504906;23;20007;-91
2023/07/02 21:55:27;;;;;;;19.85;7.50;;;;;;;;;;2506868;23;20010;-91
2023/07/02 21:56:48;;;;;;;18.48;7.55;;;;;;;;;;2507244;23;20058;-91
2023/07/02 21:58:09;;;;;;;22.17;8.03;;;;;;;;;;2505876;23;20378;-90
2023/07/02 21:59:30;;;;;;;23.25;9.40;;;;;;;;;;2506078;23;20432;-90
2023/07/02 22:00:53;;;;;;;22.17;7.85;;;;;;;;;;2506165;23;20029;-91
2023/07/02 22:02:21;;;;;;;18.80;6.82;;;;;;;;;;2506365;23;20007;-90
2023/07/02 22:03:43;;;;;;;20.70;7.38;;;;;;;;;;2508715;23;20090;-90
2023/07/02 22:05:15;;;;;;;24.85;9.10;;;;;;;;;;2505559;23;20011;-90
2023/07/02 22:06:36;;;;;;;24.60;8.40;;;;;;;;;;2509619;23;20018;-90
2023/07/02 22:07:58;;;;;;;20.33;7.35;;;;;;;;;;2506635;23;20030;-90
2023/07/02 22:09:19;;;;;;;23.08;8.05;;;;;;;;;;2506389;23;20022;-90
2023/07/02 22:10:40;;;;;;;21.88;8.30;;;;;;;;;;2504649;23;20473;-90
2023/07/02 22:12:04;;;;;;;18.52;7.88;;;;;;;;;;2508080;23;20393;-90
2023/07/02 22:13:26;;;;;;;18.92;7.82;;;;;;;;;;2506565;23;20015;-91
2023/07/02 22:14:47;;;;;;;17.55;8.05;;;;;;;;;;2505485;23;20364;-91
2023/07/02 22:16:11;;;;;;;27.10;8.90;;;;;;;;;;2505404;23;20037;-91
2023/07/02 22:17:32;;;;;;;25.65;8.50;;;;;;;;;;2505918;23;20101;-90
2023/07/02 22:19:04;;;;;;;31.98;10.02;;;;;;;;;;2505051;23;20018;-90
2023/07/02 22:20:25;;;;;;;21.30;7.75;;;;;;;;;;2494995;23;20334;-90
2023/07/02 22:21:46;;;;;;;22.90;8.35;;;;;;;;;;2499414;23;20098;-91
2023/07/02 22:23:10;;;;;;;23.17;7.88;;;;;;;;;;2507109;23;20022;-90
2023/07/02 22:24:32;;;;;;;19.48;8.00;;;;;;;;;;2508329;23;20015;-91
2023/07/02 22:25:53;;;;;;;22.33;8.38;;;;;;;;;;2505669;23;20011;-90
2023/07/02 22:27:16;;;;;;;19.85;7.88;;;;;;;;;;2506823;23;20015;-90
2023/07/02 22:28:38;;;;;;;19.73;8.18;;;;;;;;;;2507544;23;20014;-90
2023/07/02 22:29:59;;;;;;;31.55;12.68;;;;;;;;;;2504115;23;20428;-90
2023/07/02 22:31:20;;;;;;;21.88;7.53;;;;;;;;;;2505403;23;20015;-91
2023/07/02 22:32:41;;;;;;;15.68;6.80;;;;;;;;;;2506199;23;20015;-90
2023/07/02 22:34:02;;;;;;;19.88;7.78;;;;;;;;;;2505275;23;20017;-90
2023/07/02 22:35:23;;;;;;;19.27;8.35;;;;;;;;;;2507773;23;20006;-90
2023/07/02 22:36:44;;;;;;;20.65;8.10;;;;;;;;;;2518069;23;20014;-90
2023/07/02 22:38:05;;;;;;;19.33;7.07;;;;;;;;;;2519110;23;20113;-90
2023/07/02 22:39:26;;;;;;;21.60;7.57;;;;;;;;;;2516334;23;20014;-91
2023/07/02 22:40:47;;;;;;;16.67;8.25;;;;;;;;;;2516740;23;20014;-90
2023/07/02 22:42:08;;;;;;;21.25;7.25;;;;;;;;;;2517454;23;20094;-90
2023/07/02 22:43:29;;;;;;;20.05;7.80;;;;;;;;;;2515590;23;20015;-90
2023/07/02 22:44:53;;;;;;;21.08;8.10;;;;;;;;;;2517637;23;20014;-91
2023/07/02 22:46:14;;;;;;;23.85;8.50;;;;;;;;;;2517709;23;20365;-90
2023/07/02 22:47:35;;;;;;;24.23;8.70;;;;;;;;;;2515460;23;20019;-90
2023/07/02 22:49:14;;;;;;;19.88;8.00;;;;;;;;;;2515996;23;20649;-90
2023/07/02 22:50:37;;;;;;;28.45;10.43;;;;;;;;;;2504437;23;20018;-90
2023/07/02 22:52:00;;;;;;;26.77;9.68;;;;;;;;;;2515753;23;20022;-91
2023/07/02 22:53:21;;;;;;;18.40;8.30;;;;;;;;;;2516500;23;20019;-90
2023/07/02 22:54:42;;;;;;;20.38;8.27;;;;;;;;;;2517488;23;20496;-91
2023/07/02 22:56:09;;;;;;;17.55;7.78;;;;;;;;;;2517804;23;20010;-91
2023/07/02 22:57:31;;;;;;;18.77;7.90;;;;;;;;;;2519139;23;20006;-91
2023/07/02 22:58:52;;;;;;;22.63;8.57;;;;;;;;;;2517789;23;20010;-90
2023/07/02 23:00:14;;;;;;;25.33;8.18;;;;;;;;;;2514730;23;20034;-90
2023/07/02 23:01:35;;;;;;;17.23;7.85;;;;;;;;;;2517226;23;20485;-90
2023/07/02 23:02:56;;;;;;;20.98;7.85;;;;;;;;;;2517517;23;20018;-90
2023/07/02 23:04:22;;;;;;;19.63;8.45;;;;;;;;;;2515138;23;20014;-90
2023/07/02 23:05:43;;;;;;;18.55;7.38;;;;;;;;;;2521746;23;20055;-90
2023/07/02 23:07:05;;;;;;;21.17;7.95;;;;;;;;;;2516235;23;20007;-89
2023/07/02 23:08:29;;;;;;;24.98;9.55;;;;;;;;;;2517560;23;20006;-90
2023/07/02 23:09:50;;;;;;;21.27;7.68;;;;;;;;;;2514467;23;20437;-91
2023/07/02 23:11:20;;;;;;;18.00;6.70;;;;;;;;;;2517322;23;20544;-89
2023/07/02 23:12:46;;;;;;;23.50;8.68;;;;;;;;;;2518367;23;20091;-91
2023/07/02 23:14:10;;;;;;;18.40;7.85;;;;;;;;;;2519212;23;20010;-90
2023/07/02 23:15:33;;;;;;;20.75;8.15;;;;;;;;;;2516717;23;20435;-89
2023/07/02 23:17:05;;;;;;;17.92;7.88;;;;;;;;;;2517323;23;20066;-90
2023/07/02 23:18:29;;;;;;;27.42;8.02;;;;;;;;;;2518630;23;20456;-91
2023/07/02 23:19:51;;;;;;;25.27;8.90;;;;;;;;;;2516977;23;20065;-90
2023/07/02 23:21:13;;;;;;;28.75;9.68;;;;;;;;;;2512650;23;20022;-90
2023/07/02 23:22:39;;;;;;;19.83;8.73;;;;;;;;;;2516309;23;20006;-90
2023/07/02 23:24:02;;;;;;;23.65;9.00;;;;;;;;;;2532043;23;20009;-91
2023/07/02 23:25:27;;;;;;;32.67;11.27;;;;;;;;;;2517849;23;20025;-90
2023/07/02 23:26:56;;;;;;;23.70;8.65;;;;;;;;;;2516794;23;20130;-89
2023/07/02 23:28:17;;;;;;;22.80;8.38;;;;;;;;;;2517921;23;20037;-89
2023/07/02 23:29:39;;;;;;;23.60;9.40;;;;;;;;;;2517226;23;20018;-90
2023/07/02 23:31:04;;;;;;;24.83;9.48;;;;;;;;;;2500926;23;20026;-90
2023/07/02 23:32:25;;;;;;;23.67;8.52;;;;;;;;;;2512345;23;20022;-90
2023/07/02 23:33:46;;;;;;;27.17;8.60;;;;;;;;;;2517115;23;20014;-90
2023/07/02 23:35:12;;;;;;;19.08;6.95;;;;;;;;;;2515087;23;20060;-89
2023/07/02 23:36:33;;;;;;;26.02;8.95;;;;;;;;;;2514506;23;20026;-91
2023/07/02 23:37:56;;;;;;;23.27;9.15;;;;;;;;;;2529363;23;20359;-90
2023/07/02 23:39:17;;;;;;;22.10;8.60;;;;;;;;;;2520688;23;20010;-90
2023/07/02 23:40:39;;;;;;;27.85;10.20;;;;;;;;;;2513091;23;20472;-90
2023/07/02 23:42:00;;;;;;;20.00;7.80;;;;;;;;;;2515121;23;20018;-90
2023/07/02 23:43:21;;;;;;;21.52;9.35;;;;;;;;;;2516840;23;20010;-89
2023/07/02 23:44:42;;;;;;;21.73;8.63;;;;;;;;;;2520045;23;20018;-91
2023/07/02 23:46:03;;;;;;;23.02;9.02;;;;;;;;;;2516906;23;20029;-90
2023/07/02 23:47:24;;;;;;;18.63;8.15;;;;;;;;;;2515244;23;20065;-91
2023/07/02 23:48:45;;;;;;;26.08;8.77;;;;;;;;;;2517149;23;20018;-90
2023/07/02 23:50:07;;;;;;;21.85;8.15;;;;;;;;;;2519886;23;20019;-89
2023/07/02 23:51:28;;;;;;;23.30;7.45;;;;;;;;;;2516287;23;20030;-90
2023/07/02 23:52:49;;;;;;;28.77;10.30;;;;;;;;;;2515211;23;20018;-90
2023/07/02 23:54:11;;;;;;;27.83;10.00;;;;;;;;;;2514064;23;20086;-90
2023/07/02 23:55:37;;;;;;;22.27;8.13;;;;;;;;;;2516362;23;20010;-90
2023/07/02 23:56:58;;;;;;;22.98;7.75;;;;;;;;;;2517167;23;20021;-90
2023/07/02 23:58:19;;;;;;;23.15;8.13;;;;;;;;;;2514791;23;20010;-91
2023/07/02 23:59:40;;;;;;;16.25;7.35;;;;;;;;;;2515866;23;20003;-90
